This is the latest recevied weather packets stored in our database for station/object KB9HUO. If no packets are shown the sender has not sent any weather packets the latest 10 day(s).
| Time | Temp. | Humidity | Pressure | Rain* | Wind** | Luminosity | Snow |
|---|---|---|---|---|---|---|---|
| 1777906549 | 17.22° C | 74% | 1010.6 hPa | 0 mm | - | 155 W/m² | - |
| 1777906244 | 17.22° C | 75% | 1010.4 hPa | 0 mm | - | 186 W/m² | - |
| 1777905941 | 16.67° C | 76% | 1010.5 hPa | 0 mm | - | 200 W/m² | - |
| 1777905637 | 16.67° C | 76% | 1010.4 hPa | 0 mm | - | 123 W/m² | - |
| 1777905335 | 16.67° C | 76% | 1010.5 hPa | 0 mm | - | 113 W/m² | - |
| 1777905032 | 16.11° C | 77% | 1010.5 hPa | 0 mm | - | 130 W/m² | - |
| 1777904729 | 16.11° C | 77% | 1010.5 hPa | 0 mm | - | 153 W/m² | - |
| 1777904426 | 15.56° C | 77% | 1010.3 hPa | 0 mm | - | 128 W/m² | - |
| 1777904123 | 15.56° C | 79% | 1010.6 hPa | 0 mm | - | 146 W/m² | - |
| 1777903820 | 15.56° C | 79% | 1010.7 hPa | 0 mm | - | 125 W/m² | - |
| 1777903516 | 15.56° C | 79% | 1010.6 hPa | 0 mm | - | 96 W/m² | - |
| 1777903213 | 16.11° C | 77% | 1010.7 hPa | 0 mm | - | 136 W/m² | - |
| 1777902909 | 15.56° C | 79% | 1010.6 hPa | 0 mm | - | 112 W/m² | - |
| 1777902606 | 15.56° C | 79% | 1010.7 hPa | 0 mm | - | 75 W/m² | - |
| 1777902303 | 16.11° C | 79% | 1010.4 hPa | 0 mm | - | 78 W/m² | - |
| 1777902001 | 16.11° C | 80% | 1010.8 hPa | 0 mm | - | 107 W/m² | - |
| 1777901699 | 16.11° C | 80% | 1010.8 hPa | 0 mm | - | 156 W/m² | - |
| 1777901396 | 15.56° C | 81% | 1010.7 hPa | 0 mm | - | 67 W/m² | - |
| 1777901093 | 15.56° C | 81% | 1010.5 hPa | 0 mm | - | 68 W/m² | - |
| 1777900790 | 15° C | 84% | 1010.6 hPa | 0 mm | - | 70 W/m² | - |
| 1777900488 | 15° C | 83% | 1010.5 hPa | 0 mm | - | 58 W/m² | - |
| 1777900184 | 14.44° C | 85% | 1010.5 hPa | 0 mm | - | 62 W/m² | - |
| 1777899881 | 14.44° C | 85% | 1010.4 hPa | 0 mm | - | 66 W/m² | - |
| 1777899578 | 14.44° C | 85% | 1010 hPa | 0 mm | - | 64 W/m² | - |
| 1777899276 | 13.89° C | 86% | 1010.4 hPa | 0 mm | - | 77 W/m² | - |
* Rain latest hour (hover to see other rain measurements)
** Current wind speed in m/s (hover to see current wind gust speed)